sensor_id;sensor_type;location;lat;lon;timestamp;temperature;humidity
63202;DHT22;49296;48.188;11.566;2023-08-20T00:00:35;27.14;55.43
63202;DHT22;49296;48.188;11.566;2023-08-20T00:03:03;27.14;55.50
63202;DHT22;49296;48.188;11.566;2023-08-20T00:05:31;27.10;55.66
63202;DHT22;49296;48.188;11.566;2023-08-20T00:07:58;27.00;55.89
63202;DHT22;49296;48.188;11.566;2023-08-20T00:10:24;26.95;55.93
63202;DHT22;49296;48.188;11.566;2023-08-20T00:12:52;26.95;55.96
63202;DHT22;49296;48.188;11.566;2023-08-20T00:15:19;26.92;56.03
63202;DHT22;49296;48.188;11.566;2023-08-20T00:17:48;26.86;56.34
63202;DHT22;49296;48.188;11.566;2023-08-20T00:20:15;26.82;56.16
63202;DHT22;49296;48.188;11.566;2023-08-20T00:22:42;26.82;56.18
63202;DHT22;49296;48.188;11.566;2023-08-20T00:25:11;26.78;56.30
63202;DHT22;49296;48.188;11.566;2023-08-20T00:27:38;26.77;56.19
63202;DHT22;49296;48.188;11.566;2023-08-20T00:30:07;26.71;56.27
63202;DHT22;49296;48.188;11.566;2023-08-20T00:32:34;26.71;56.34
63202;DHT22;49296;48.188;11.566;2023-08-20T00:35:00;26.62;56.40
63202;DHT22;49296;48.188;11.566;2023-08-20T00:37:28;26.62;56.42
63202;DHT22;49296;48.188;11.566;2023-08-20T00:39:56;26.61;56.59
63202;DHT22;49296;48.188;11.566;2023-08-20T00:42:23;26.60;56.54
63202;DHT22;49296;48.188;11.566;2023-08-20T00:44:51;26.58;56.74
63202;DHT22;49296;48.188;11.566;2023-08-20T00:47:20;26.60;56.75
63202;DHT22;49296;48.188;11.566;2023-08-20T00:49:47;26.60;56.71
63202;DHT22;49296;48.188;11.566;2023-08-20T00:52:16;26.67;56.72
63202;DHT22;49296;48.188;11.566;2023-08-20T00:54:44;26.61;56.72
63202;DHT22;49296;48.188;11.566;2023-08-20T00:57:12;26.54;57.04
63202;DHT22;49296;48.188;11.566;2023-08-20T00:59:39;26.55;57.09
63202;DHT22;49296;48.188;11.566;2023-08-20T01:02:06;26.55;57.12
63202;DHT22;49296;48.188;11.566;2023-08-20T01:04:35;26.50;57.29
63202;DHT22;49296;48.188;11.566;2023-08-20T01:07:07;26.44;57.35
63202;DHT22;49296;48.188;11.566;2023-08-20T01:09:43;26.41;57.48
63202;DHT22;49296;48.188;11.566;2023-08-20T01:12:14;26.44;57.38
63202;DHT22;49296;48.188;11.566;2023-08-20T01:14:42;26.34;57.54
63202;DHT22;49296;48.188;11.566;2023-08-20T01:17:09;26.36;57.66
63202;DHT22;49296;48.188;11.566;2023-08-20T01:19:37;26.34;57.73
63202;DHT22;49296;48.188;11.566;2023-08-20T01:22:21;26.37;57.78
63202;DHT22;49296;48.188;11.566;2023-08-20T01:25:00;26.32;57.97
63202;DHT22;49296;48.188;11.566;2023-08-20T01:27:42;26.27;58.30
63202;DHT22;49296;48.188;11.566;2023-08-20T01:30:12;26.22;58.47
63202;DHT22;49296;48.188;11.566;2023-08-20T01:32:39;26.13;58.67
63202;DHT22;49296;48.188;11.566;2023-08-20T01:35:08;26.12;58.91
63202;DHT22;49296;48.188;11.566;2023-08-20T01:37:37;26.05;58.92
63202;DHT22;49296;48.188;11.566;2023-08-20T01:40:06;26.06;59.03
63202;DHT22;49296;48.188;11.566;2023-08-20T01:42:33;26.06;58.95
63202;DHT22;49296;48.188;11.566;2023-08-20T01:45:00;26.02;59.12
63202;DHT22;49296;48.188;11.566;2023-08-20T01:47:28;25.99;59.33
63202;DHT22;49296;48.188;11.566;2023-08-20T01:49:54;25.92;59.36
63202;DHT22;49296;48.188;11.566;2023-08-20T01:52:21;25.91;59.66
63202;DHT22;49296;48.188;11.566;2023-08-20T01:54:48;25.89;59.62
63202;DHT22;49296;48.188;11.566;2023-08-20T01:57:15;25.82;59.93
63202;DHT22;49296;48.188;11.566;2023-08-20T01:59:42;25.78;60.10
63202;DHT22;49296;48.188;11.566;2023-08-20T02:02:09;25.74;60.25
63202;DHT22;49296;48.188;11.566;2023-08-20T02:04:37;25.70;59.78
63202;DHT22;49296;48.188;11.566;2023-08-20T02:07:03;25.71;59.98
63202;DHT22;49296;48.188;11.566;2023-08-20T02:09:30;25.70;59.91
63202;DHT22;49296;48.188;11.566;2023-08-20T02:11:56;25.70;59.82
63202;DHT22;49296;48.188;11.566;2023-08-20T02:14:23;25.64;59.81
63202;DHT22;49296;48.188;11.566;2023-08-20T02:16:52;25.67;59.68
63202;DHT22;49296;48.188;11.566;2023-08-20T02:19:19;25.64;59.75
63202;DHT22;49296;48.188;11.566;2023-08-20T02:21:46;25.64;59.93
63202;DHT22;49296;48.188;11.566;2023-08-20T02:24:13;25.60;60.05
63202;DHT22;49296;48.188;11.566;2023-08-20T02:26:40;25.60;60.19
63202;DHT22;49296;48.188;11.566;2023-08-20T02:29:06;25.51;60.35
63202;DHT22;49296;48.188;11.566;2023-08-20T02:31:33;25.51;60.35
63202;DHT22;49296;48.188;11.566;2023-08-20T02:33:59;25.48;60.40
63202;DHT22;49296;48.188;11.566;2023-08-20T02:36:26;25.47;60.64
63202;DHT22;49296;48.188;11.566;2023-08-20T02:38:54;25.47;60.99
63202;DHT22;49296;48.188;11.566;2023-08-20T02:41:21;25.40;60.79
63202;DHT22;49296;48.188;11.566;2023-08-20T02:43:48;25.37;60.87
63202;DHT22;49296;48.188;11.566;2023-08-20T02:46:14;25.31;61.04
63202;DHT22;49296;48.188;11.566;2023-08-20T02:48:41;25.30;61.14
63202;DHT22;49296;48.188;11.566;2023-08-20T02:51:08;25.27;61.26
63202;DHT22;49296;48.188;11.566;2023-08-20T02:53:34;25.27;61.41
63202;DHT22;49296;48.188;11.566;2023-08-20T02:56:02;25.23;61.49
63202;DHT22;49296;48.188;11.566;2023-08-20T02:58:30;25.20;61.58
63202;DHT22;49296;48.188;11.566;2023-08-20T03:00:57;25.16;61.57
63202;DHT22;49296;48.188;11.566;2023-08-20T03:03:23;25.18;61.63
63202;DHT22;49296;48.188;11.566;2023-08-20T03:05:50;25.12;61.76
63202;DHT22;49296;48.188;11.566;2023-08-20T03:08:17;25.09;61.92
63202;DHT22;49296;48.188;11.566;2023-08-20T03:10:43;25.05;62.02
63202;DHT22;49296;48.188;11.566;2023-08-20T03:13:11;25.02;62.18
63202;DHT22;49296;48.188;11.566;2023-08-20T03:15:38;24.99;62.19
63202;DHT22;49296;48.188;11.566;2023-08-20T03:18:05;24.96;62.17
63202;DHT22;49296;48.188;11.566;2023-08-20T03:20:32;24.96;62.24
63202;DHT22;49296;48.188;11.566;2023-08-20T03:22:59;24.95;62.36
63202;DHT22;49296;48.188;11.566;2023-08-20T03:25:26;24.98;62.40
63202;DHT22;49296;48.188;11.566;2023-08-20T03:27:53;24.88;62.64
63202;DHT22;49296;48.188;11.566;2023-08-20T03:30:21;24.84;62.80
63202;DHT22;49296;48.188;11.566;2023-08-20T03:32:47;24.85;62.87
63202;DHT22;49296;48.188;11.566;2023-08-20T03:35:14;24.85;62.95
63202;DHT22;49296;48.188;11.566;2023-08-20T03:37:41;24.85;62.87
63202;DHT22;49296;48.188;11.566;2023-08-20T03:40:08;24.75;63.06
63202;DHT22;49296;48.188;11.566;2023-08-20T03:42:35;24.67;63.19
63202;DHT22;49296;48.188;11.566;2023-08-20T03:45:01;24.75;63.08
63202;DHT22;49296;48.188;11.566;2023-08-20T03:47:29;24.74;63.09
63202;DHT22;49296;48.188;11.566;2023-08-20T03:49:56;24.69;63.19
63202;DHT22;49296;48.188;11.566;2023-08-20T03:52:22;24.67;63.30
63202;DHT22;49296;48.188;11.566;2023-08-20T03:54:49;24.65;63.36
63202;DHT22;49296;48.188;11.566;2023-08-20T03:57:16;24.65;63.50
63202;DHT22;49296;48.188;11.566;2023-08-20T03:59:43;24.64;63.60
63202;DHT22;49296;48.188;11.566;2023-08-20T04:02:10;24.58;63.55
63202;DHT22;49296;48.188;11.566;2023-08-20T04:04:38;24.57;63.59
63202;DHT22;49296;48.188;11.566;2023-08-20T04:07:05;24.58;63.77
63202;DHT22;49296;48.188;11.566;2023-08-20T04:09:32;24.56;63.70
63202;DHT22;49296;48.188;11.566;2023-08-20T04:11:59;24.57;63.79
63202;DHT22;49296;48.188;11.566;2023-08-20T04:14:26;24.10;64.82
63202;DHT22;49296;48.188;11.566;2023-08-20T04:16:52;23.89;65.41
63202;DHT22;49296;48.188;11.566;2023-08-20T04:19:19;23.71;65.83
63202;DHT22;49296;48.188;11.566;2023-08-20T04:21:47;23.65;65.77
63202;DHT22;49296;48.188;11.566;2023-08-20T04:24:13;23.65;65.95
63202;DHT22;49296;48.188;11.566;2023-08-20T04:26:40;23.79;65.38
63202;DHT22;49296;48.188;11.566;2023-08-20T04:29:07;23.94;65.06
63202;DHT22;49296;48.188;11.566;2023-08-20T04:31:34;24.04;64.78
63202;DHT22;49296;48.188;11.566;2023-08-20T04:34:00;24.12;64.63
63202;DHT22;49296;48.188;11.566;2023-08-20T04:36:27;24.09;64.69
63202;DHT22;49296;48.188;11.566;2023-08-20T04:38:55;24.13;64.38
63202;DHT22;49296;48.188;11.566;2023-08-20T04:41:22;24.20;64.31
63202;DHT22;49296;48.188;11.566;2023-08-20T04:43:48;24.24;64.16
63202;DHT22;49296;48.188;11.566;2023-08-20T04:46:15;24.24;64.29
63202;DHT22;49296;48.188;11.566;2023-08-20T04:48:42;24.26;64.51
63202;DHT22;49296;48.188;11.566;2023-08-20T04:51:08;24.29;64.53
63202;DHT22;49296;48.188;11.566;2023-08-20T04:53:36;24.24;64.63
63202;DHT22;49296;48.188;11.566;2023-08-20T04:56:04;24.26;64.69
63202;DHT22;49296;48.188;11.566;2023-08-20T04:58:30;24.27;64.67
63202;DHT22;49296;48.188;11.566;2023-08-20T05:00:57;24.26;64.74
63202;DHT22;49296;48.188;11.566;2023-08-20T05:03:24;24.24;64.75
63202;DHT22;49296;48.188;11.566;2023-08-20T05:05:50;24.26;64.65
63202;DHT22;49296;48.188;11.566;2023-08-20T05:08:17;24.24;64.52
63202;DHT22;49296;48.188;11.566;2023-08-20T05:10:44;24.23;64.48
63202;DHT22;49296;48.188;11.566;2023-08-20T05:13:12;24.23;64.50
63202;DHT22;49296;48.188;11.566;2023-08-20T05:15:38;24.29;64.30
63202;DHT22;49296;48.188;11.566;2023-08-20T05:18:05;24.32;63.77
63202;DHT22;49296;48.188;11.566;2023-08-20T05:20:32;24.29;64.49
63202;DHT22;49296;48.188;11.566;2023-08-20T05:22:58;24.30;64.69
63202;DHT22;49296;48.188;11.566;2023-08-20T05:25:25;24.27;64.54
63202;DHT22;49296;48.188;11.566;2023-08-20T05:27:51;24.27;64.59
63202;DHT22;49296;48.188;11.566;2023-08-20T05:30:20;24.30;64.31
63202;DHT22;49296;48.188;11.566;2023-08-20T05:32:46;24.34;63.92
63202;DHT22;49296;48.188;11.566;2023-08-20T05:35:13;24.40;63.41
63202;DHT22;49296;48.188;11.566;2023-08-20T05:37:39;24.44;63.20
63202;DHT22;49296;48.188;11.566;2023-08-20T05:40:07;24.43;63.06
63202;DHT22;49296;48.188;11.566;2023-08-20T05:42:34;24.44;62.90
63202;DHT22;49296;48.188;11.566;2023-08-20T05:45:00;24.44;63.01
63202;DHT22;49296;48.188;11.566;2023-08-20T05:47:28;24.57;62.71
63202;DHT22;49296;48.188;11.566;2023-08-20T05:49:55;24.60;62.51
63202;DHT22;49296;48.188;11.566;2023-08-20T05:52:22;24.69;62.04
63202;DHT22;49296;48.188;11.566;2023-08-20T05:54:48;24.81;61.55
63202;DHT22;49296;48.188;11.566;2023-08-20T05:57:15;24.85;61.36
63202;DHT22;49296;48.188;11.566;2023-08-20T05:59:41;24.78;61.30
63202;DHT22;49296;48.188;11.566;2023-08-20T06:02:08;24.85;61.29
63202;DHT22;49296;48.188;11.566;2023-08-20T06:04:36;24.95;61.08
63202;DHT22;49296;48.188;11.566;2023-08-20T06:07:02;24.98;60.89
63202;DHT22;49296;48.188;11.566;2023-08-20T06:09:29;25.09;60.54
63202;DHT22;49296;48.188;11.566;2023-08-20T06:11:55;25.03;60.54
63202;DHT22;49296;48.188;11.566;2023-08-20T06:14:22;25.15;59.93
63202;DHT22;49296;48.188;11.566;2023-08-20T06:16:49;25.22;59.92
63202;DHT22;49296;48.188;11.566;2023-08-20T06:19:15;25.30;59.64
63202;DHT22;49296;48.188;11.566;2023-08-20T06:21:43;25.37;59.30
63202;DHT22;49296;48.188;11.566;2023-08-20T06:24:10;25.33;59.52
63202;DHT22;49296;48.188;11.566;2023-08-20T06:26:36;25.40;59.42
63202;DHT22;49296;48.188;11.566;2023-08-20T06:29:03;25.47;59.30
63202;DHT22;49296;48.188;11.566;2023-08-20T06:31:29;25.48;59.21
63202;DHT22;49296;48.188;11.566;2023-08-20T06:33:56;25.54;59.13
63202;DHT22;49296;48.188;11.566;2023-08-20T06:36:23;25.53;58.71
63202;DHT22;49296;48.188;11.566;2023-08-20T06:38:51;25.58;58.48
63202;DHT22;49296;48.188;11.566;2023-08-20T06:41:17;25.51;58.91
63202;DHT22;49296;48.188;11.566;2023-08-20T06:43:44;25.47;58.10
63202;DHT22;49296;48.188;11.566;2023-08-20T06:46:10;25.43;57.48
63202;DHT22;49296;48.188;11.566;2023-08-20T06:48:37;25.53;57.10
63202;DHT22;49296;48.188;11.566;2023-08-20T06:51:18;25.51;57.50
63202;DHT22;49296;48.188;11.566;2023-08-20T06:54:00;25.58;57.69
63202;DHT22;49296;48.188;11.566;2023-08-20T06:56:26;25.64;57.94
63202;DHT22;49296;48.188;11.566;2023-08-20T06:58:53;25.70;57.40
63202;DHT22;49296;48.188;11.566;2023-08-20T07:01:20;25.72;57.04
63202;DHT22;49296;48.188;11.566;2023-08-20T07:03:47;25.81;57.02
63202;DHT22;49296;48.188;11.566;2023-08-20T07:06:13;25.91;56.49
63202;DHT22;49296;48.188;11.566;2023-08-20T07:08:41;25.91;55.85
63202;DHT22;49296;48.188;11.566;2023-08-20T07:11:09;25.99;55.64
63202;DHT22;49296;48.188;11.566;2023-08-20T07:13:36;26.08;55.80
63202;DHT22;49296;48.188;11.566;2023-08-20T07:16:03;26.09;56.01
63202;DHT22;49296;48.188;11.566;2023-08-20T07:18:30;26.12;56.07
63202;DHT22;49296;48.188;11.566;2023-08-20T07:20:56;26.20;56.04
63202;DHT22;49296;48.188;11.566;2023-08-20T07:23:23;26.24;55.85
63202;DHT22;49296;48.188;11.566;2023-08-20T07:25:49;26.26;55.38
63202;DHT22;49296;48.188;11.566;2023-08-20T07:28:19;26.33;55.33
63202;DHT22;49296;48.188;11.566;2023-08-20T07:31:06;26.37;55.67
63202;DHT22;49296;48.188;11.566;2023-08-20T07:33:32;26.41;56.13
63202;DHT22;49296;48.188;11.566;2023-08-20T07:35:59;26.51;56.46
63202;DHT22;49296;48.188;11.566;2023-08-20T07:38:25;26.52;56.26
63202;DHT22;49296;48.188;11.566;2023-08-20T07:40:52;26.44;56.17
63202;DHT22;49296;48.188;11.566;2023-08-20T07:43:20;26.40;56.08
63202;DHT22;49296;48.188;11.566;2023-08-20T07:45:46;26.39;56.17
63202;DHT22;49296;48.188;11.566;2023-08-20T07:48:13;26.48;56.27
63202;DHT22;49296;48.188;11.566;2023-08-20T07:50:40;26.45;55.60
63202;DHT22;49296;48.188;11.566;2023-08-20T07:53:07;26.45;55.44
63202;DHT22;49296;48.188;11.566;2023-08-20T07:55:33;26.57;55.32
63202;DHT22;49296;48.188;11.566;2023-08-20T07:58:00;26.58;54.98
63202;DHT22;49296;48.188;11.566;2023-08-20T08:00:28;26.68;55.15
63202;DHT22;49296;48.188;11.566;2023-08-20T08:02:54;26.71;55.04
63202;DHT22;49296;48.188;11.566;2023-08-20T08:05:21;26.82;54.18
63202;DHT22;49296;48.188;11.566;2023-08-20T08:07:47;26.86;54.59
63202;DHT22;49296;48.188;11.566;2023-08-20T08:10:14;26.88;54.69
63202;DHT22;49296;48.188;11.566;2023-08-20T08:12:40;26.89;54.91
63202;DHT22;49296;48.188;11.566;2023-08-20T08:15:07;26.89;54.87
63202;DHT22;49296;48.188;11.566;2023-08-20T08:17:35;26.96;54.98
63202;DHT22;49296;48.188;11.566;2023-08-20T08:20:02;27.06;54.74
63202;DHT22;49296;48.188;11.566;2023-08-20T08:22:28;27.05;55.00
63202;DHT22;49296;48.188;11.566;2023-08-20T08:24:55;27.14;54.94
63202;DHT22;49296;48.188;11.566;2023-08-20T08:27:22;27.09;54.30
63202;DHT22;49296;48.188;11.566;2023-08-20T08:29:48;27.17;54.00
63202;DHT22;49296;48.188;11.566;2023-08-20T08:32:15;27.22;54.23
63202;DHT22;49296;48.188;11.566;2023-08-20T08:34:43;27.24;53.93
63202;DHT22;49296;48.188;11.566;2023-08-20T08:37:09;27.22;53.63
63202;DHT22;49296;48.188;11.566;2023-08-20T08:39:36;27.31;53.17
63202;DHT22;49296;48.188;11.566;2023-08-20T08:42:04;27.34;53.36
63202;DHT22;49296;48.188;11.566;2023-08-20T08:44:32;27.37;53.17
63202;DHT22;49296;48.188;11.566;2023-08-20T08:46:59;27.39;53.21
63202;DHT22;49296;48.188;11.566;2023-08-20T08:49:26;27.41;53.22
63202;DHT22;49296;48.188;11.566;2023-08-20T08:51:56;27.44;53.20
63202;DHT22;49296;48.188;11.566;2023-08-20T08:54:23;27.50;53.27
63202;DHT22;49296;48.188;11.566;2023-08-20T08:56:50;27.55;52.92
63202;DHT22;49296;48.188;11.566;2023-08-20T08:59:17;27.59;52.80
63202;DHT22;49296;48.188;11.566;2023-08-20T09:01:43;27.55;52.95
63202;DHT22;49296;48.188;11.566;2023-08-20T09:04:10;27.64;52.91
63202;DHT22;49296;48.188;11.566;2023-08-20T09:06:46;27.71;52.97
63202;DHT22;49296;48.188;11.566;2023-08-20T09:09:17;27.72;52.52
63202;DHT22;49296;48.188;11.566;2023-08-20T09:11:44;27.77;52.72
63202;DHT22;49296;48.188;11.566;2023-08-20T09:14:21;27.74;52.55
63202;DHT22;49296;48.188;11.566;2023-08-20T09:16:54;27.82;52.52
63202;DHT22;49296;48.188;11.566;2023-08-20T09:19:20;27.84;51.93
63202;DHT22;49296;48.188;11.566;2023-08-20T09:21:47;27.86;51.63
63202;DHT22;49296;48.188;11.566;2023-08-20T09:24:16;27.91;51.96
63202;DHT22;49296;48.188;11.566;2023-08-20T09:26:45;27.89;51.58
63202;DHT22;49296;48.188;11.566;2023-08-20T09:29:12;27.92;51.51
63202;DHT22;49296;48.188;11.566;2023-08-20T09:31:39;28.02;51.48
63202;DHT22;49296;48.188;11.566;2023-08-20T09:34:12;28.03;51.63
63202;DHT22;49296;48.188;11.566;2023-08-20T09:36:39;28.13;51.88
63202;DHT22;49296;48.188;11.566;2023-08-20T09:39:05;28.23;52.10
63202;DHT22;49296;48.188;11.566;2023-08-20T09:41:35;28.27;51.95
63202;DHT22;49296;48.188;11.566;2023-08-20T09:44:04;28.30;51.48
63202;DHT22;49296;48.188;11.566;2023-08-20T09:46:34;28.36;49.76
63202;DHT22;49296;48.188;11.566;2023-08-20T09:49:01;28.32;50.25
63202;DHT22;49296;48.188;11.566;2023-08-20T09:51:32;28.30;49.59
63202;DHT22;49296;48.188;11.566;2023-08-20T09:54:03;28.39;48.55
63202;DHT22;49296;48.188;11.566;2023-08-20T09:56:38;28.34;47.90
63202;DHT22;49296;48.188;11.566;2023-08-20T09:59:05;28.39;47.92
63202;DHT22;49296;48.188;11.566;2023-08-20T10:01:33;28.34;48.09
63202;DHT22;49296;48.188;11.566;2023-08-20T10:04:00;28.40;48.22
63202;DHT22;49296;48.188;11.566;2023-08-20T10:06:28;28.40;48.99
63202;DHT22;49296;48.188;11.566;2023-08-20T10:08:56;28.58;48.28
63202;DHT22;49296;48.188;11.566;2023-08-20T10:11:23;28.55;49.64
63202;DHT22;49296;48.188;11.566;2023-08-20T10:13:51;28.51;50.54
63202;DHT22;49296;48.188;11.566;2023-08-20T10:16:17;28.48;49.50
63202;DHT22;49296;48.188;11.566;2023-08-20T10:18:47;28.55;50.89
63202;DHT22;49296;48.188;11.566;2023-08-20T10:21:13;28.58;50.20
63202;DHT22;49296;48.188;11.566;2023-08-20T10:23:40;28.61;51.10
63202;DHT22;49296;48.188;11.566;2023-08-20T10:26:08;28.60;51.34
63202;DHT22;49296;48.188;11.566;2023-08-20T10:28:35;28.65;50.87
63202;DHT22;49296;48.188;11.566;2023-08-20T10:31:10;28.76;49.75
63202;DHT22;49296;48.188;11.566;2023-08-20T10:33:38;28.83;49.30
63202;DHT22;49296;48.188;11.566;2023-08-20T10:36:10;28.85;50.29
63202;DHT22;49296;48.188;11.566;2023-08-20T10:38:37;28.91;49.57
63202;DHT22;49296;48.188;11.566;2023-08-20T10:41:06;28.82;50.43
63202;DHT22;49296;48.188;11.566;2023-08-20T10:43:35;28.92;49.79
63202;DHT22;49296;48.188;11.566;2023-08-20T10:46:13;29.00;49.45
63202;DHT22;49296;48.188;11.566;2023-08-20T10:48:40;29.06;49.23
63202;DHT22;49296;48.188;11.566;2023-08-20T10:51:09;29.12;48.25
63202;DHT22;49296;48.188;11.566;2023-08-20T10:53:35;29.26;48.32
63202;DHT22;49296;48.188;11.566;2023-08-20T10:56:12;29.27;48.56
63202;DHT22;49296;48.188;11.566;2023-08-20T10:58:44;29.33;49.12
63202;DHT22;49296;48.188;11.566;2023-08-20T11:01:22;29.44;48.69
63202;DHT22;49296;48.188;11.566;2023-08-20T11:03:50;29.51;48.66
63202;DHT22;49296;48.188;11.566;2023-08-20T11:06:17;29.54;47.90
63202;DHT22;49296;48.188;11.566;2023-08-20T11:08:44;29.51;47.12
63202;DHT22;49296;48.188;11.566;2023-08-20T11:11:11;29.44;47.58
63202;DHT22;49296;48.188;11.566;2023-08-20T11:13:38;29.43;46.68
63202;DHT22;49296;48.188;11.566;2023-08-20T11:16:06;29.48;45.67
63202;DHT22;49296;48.188;11.566;2023-08-20T11:18:35;29.51;45.99
63202;DHT22;49296;48.188;11.566;2023-08-20T11:21:04;29.53;45.73
63202;DHT22;49296;48.188;11.566;2023-08-20T11:23:33;29.55;45.75
63202;DHT22;49296;48.188;11.566;2023-08-20T11:26:01;29.59;45.64
63202;DHT22;49296;48.188;11.566;2023-08-20T11:28:31;29.74;45.47
63202;DHT22;49296;48.188;11.566;2023-08-20T11:31:05;29.65;44.53
63202;DHT22;49296;48.188;11.566;2023-08-20T11:33:53;29.59;44.13
63202;DHT22;49296;48.188;11.566;2023-08-20T11:36:28;29.78;44.43
63202;DHT22;49296;48.188;11.566;2023-08-20T11:39:08;29.78;44.75
63202;DHT22;49296;48.188;11.566;2023-08-20T11:41:50;29.93;44.43
63202;DHT22;49296;48.188;11.566;2023-08-20T11:44:46;30.06;44.03
63202;DHT22;49296;48.188;11.566;2023-08-20T11:47:23;30.09;43.50
63202;DHT22;49296;48.188;11.566;2023-08-20T11:50:02;30.14;43.40
63202;DHT22;49296;48.188;11.566;2023-08-20T11:52:39;30.03;43.01
63202;DHT22;49296;48.188;11.566;2023-08-20T11:55:10;30.13;42.59
63202;DHT22;49296;48.188;11.566;2023-08-20T11:57:36;30.26;42.40
63202;DHT22;49296;48.188;11.566;2023-08-20T12:00:04;30.51;42.57
63202;DHT22;49296;48.188;11.566;2023-08-20T12:02:34;30.69;41.57
63202;DHT22;49296;48.188;11.566;2023-08-20T12:05:02;30.69;42.74
63202;DHT22;49296;48.188;11.566;2023-08-20T12:07:29;30.74;43.37
63202;DHT22;49296;48.188;11.566;2023-08-20T12:09:55;30.71;42.60
63202;DHT22;49296;48.188;11.566;2023-08-20T12:12:22;30.83;42.34
63202;DHT22;49296;48.188;11.566;2023-08-20T12:14:49;30.85;42.96
63202;DHT22;49296;48.188;11.566;2023-08-20T12:17:17;30.86;41.78
63202;DHT22;49296;48.188;11.566;2023-08-20T12:19:43;30.76;41.96
63202;DHT22;49296;48.188;11.566;2023-08-20T12:22:14;30.90;41.48
63202;DHT22;49296;48.188;11.566;2023-08-20T12:24:40;31.00;41.59
63202;DHT22;49296;48.188;11.566;2023-08-20T12:27:07;31.09;41.70
63202;DHT22;49296;48.188;11.566;2023-08-20T12:29:33;31.22;41.65
63202;DHT22;49296;48.188;11.566;2023-08-20T12:32:00;31.34;42.43
63202;DHT22;49296;48.188;11.566;2023-08-20T12:34:30;31.64;42.63
63202;DHT22;49296;48.188;11.566;2023-08-20T12:36:57;31.54;41.39
63202;DHT22;49296;48.188;11.566;2023-08-20T12:39:25;31.72;40.78
63202;DHT22;49296;48.188;11.566;2023-08-20T12:41:52;31.86;40.98
63202;DHT22;49296;48.188;11.566;2023-08-20T12:44:18;31.82;40.59
63202;DHT22;49296;48.188;11.566;2023-08-20T12:46:45;31.85;40.06
63202;DHT22;49296;48.188;11.566;2023-08-20T12:49:11;31.95;39.42
63202;DHT22;49296;48.188;11.566;2023-08-20T12:51:38;32.23;39.45
63202;DHT22;49296;48.188;11.566;2023-08-20T12:54:05;32.44;39.51
63202;DHT22;49296;48.188;11.566;2023-08-20T12:56:33;32.58;40.11
63202;DHT22;49296;48.188;11.566;2023-08-20T12:59:00;32.67;41.19
63202;DHT22;49296;48.188;11.566;2023-08-20T13:01:26;32.72;40.65
63202;DHT22;49296;48.188;11.566;2023-08-20T13:03:53;32.79;39.87
63202;DHT22;49296;48.188;11.566;2023-08-20T13:06:21;32.96;39.35
63202;DHT22;49296;48.188;11.566;2023-08-20T13:08:48;32.85;39.76
63202;DHT22;49296;48.188;11.566;2023-08-20T13:11:17;33.16;39.31
63202;DHT22;49296;48.188;11.566;2023-08-20T13:13:45;33.37;38.94
63202;DHT22;49296;48.188;11.566;2023-08-20T13:16:12;33.61;38.38
63202;DHT22;49296;48.188;11.566;2023-08-20T13:18:40;33.51;38.71
63202;DHT22;49296;48.188;11.566;2023-08-20T13:21:06;33.29;39.46
63202;DHT22;49296;48.188;11.566;2023-08-20T13:23:33;33.31;39.75
63202;DHT22;49296;48.188;11.566;2023-08-20T13:26:00;33.50;39.86
63202;DHT22;49296;48.188;11.566;2023-08-20T13:28:27;33.71;39.57
63202;DHT22;49296;48.188;11.566;2023-08-20T13:31:09;33.99;39.39
63202;DHT22;49296;48.188;11.566;2023-08-20T13:33:35;34.35;39.21
63202;DHT22;49296;48.188;11.566;2023-08-20T13:36:02;34.57;38.76
63202;DHT22;49296;48.188;11.566;2023-08-20T13:38:29;34.95;38.07
63202;DHT22;49296;48.188;11.566;2023-08-20T13:40:56;35.08;38.13
63202;DHT22;49296;48.188;11.566;2023-08-20T13:43:23;35.20;37.89
63202;DHT22;49296;48.188;11.566;2023-08-20T13:45:49;35.25;37.84
63202;DHT22;49296;48.188;11.566;2023-08-20T13:48:17;35.51;37.24
63202;DHT22;49296;48.188;11.566;2023-08-20T13:50:44;35.70;37.01
63202;DHT22;49296;48.188;11.566;2023-08-20T13:53:11;35.73;36.66
63202;DHT22;49296;48.188;11.566;2023-08-20T13:55:37;36.03;36.54
63202;DHT22;49296;48.188;11.566;2023-08-20T13:58:04;36.26;36.60
63202;DHT22;49296;48.188;11.566;2023-08-20T14:00:31;36.36;36.45
63202;DHT22;49296;48.188;11.566;2023-08-20T14:02:57;36.54;36.27
63202;DHT22;49296;48.188;11.566;2023-08-20T14:05:25;36.35;36.32
63202;DHT22;49296;48.188;11.566;2023-08-20T14:07:54;36.91;35.51
63202;DHT22;49296;48.188;11.566;2023-08-20T14:10:21;36.67;35.84
63202;DHT22;49296;48.188;11.566;2023-08-20T14:12:47;37.03;35.31
63202;DHT22;49296;48.188;11.566;2023-08-20T14:15:14;37.29;35.81
63202;DHT22;49296;48.188;11.566;2023-08-20T14:17:41;37.53;35.03
63202;DHT22;49296;48.188;11.566;2023-08-20T14:20:08;37.39;35.00
63202;DHT22;49296;48.188;11.566;2023-08-20T14:22:37;37.68;34.73
63202;DHT22;49296;48.188;11.566;2023-08-20T14:25:04;37.94;34.33
63202;DHT22;49296;48.188;11.566;2023-08-20T14:27:31;37.88;34.47
63202;DHT22;49296;48.188;11.566;2023-08-20T14:29:58;37.66;34.58
63202;DHT22;49296;48.188;11.566;2023-08-20T14:32:24;38.11;34.26
63202;DHT22;49296;48.188;11.566;2023-08-20T14:34:51;37.51;34.71
63202;DHT22;49296;48.188;11.566;2023-08-20T14:37:17;37.92;34.52
63202;DHT22;49296;48.188;11.566;2023-08-20T14:39:46;37.80;35.20
63202;DHT22;49296;48.188;11.566;2023-08-20T14:42:12;38.09;34.81
63202;DHT22;49296;48.188;11.566;2023-08-20T14:44:39;38.30;34.35
63202;DHT22;49296;48.188;11.566;2023-08-20T14:47:06;37.89;34.73
63202;DHT22;49296;48.188;11.566;2023-08-20T14:49:32;38.06;34.59
63202;DHT22;49296;48.188;11.566;2023-08-20T14:51:59;38.18;34.61
63202;DHT22;49296;48.188;11.566;2023-08-20T14:54:26;38.18;34.42
63202;DHT22;49296;48.188;11.566;2023-08-20T14:56:54;38.54;33.87
63202;DHT22;49296;48.188;11.566;2023-08-20T14:59:20;38.63;33.65
63202;DHT22;49296;48.188;11.566;2023-08-20T15:01:47;38.00;34.05
63202;DHT22;49296;48.188;11.566;2023-08-20T15:04:14;37.43;34.66
63202;DHT22;49296;48.188;11.566;2023-08-20T15:06:40;37.70;34.36
63202;DHT22;49296;48.188;11.566;2023-08-20T15:09:07;37.70;34.23
63202;DHT22;49296;48.188;11.566;2023-08-20T15:11:40;37.76;34.22
63202;DHT22;49296;48.188;11.566;2023-08-20T15:14:08;37.43;34.21
63202;DHT22;49296;48.188;11.566;2023-08-20T15:16:35;37.81;33.98
63202;DHT22;49296;48.188;11.566;2023-08-20T15:19:01;37.82;33.89